createdAt,value
2024-01-24T00:00:46.600Z,3.40
2024-01-24T00:03:15.274Z,4.20
2024-01-24T00:05:43.668Z,1.98
2024-01-24T00:08:11.936Z,1.70
2024-01-24T00:10:40.207Z,1.95
2024-01-24T00:13:08.475Z,4.68
2024-01-24T00:15:38.210Z,3.45
2024-01-24T00:18:06.931Z,3.88
2024-01-24T00:20:35.181Z,1.65
2024-01-24T00:23:03.539Z,1.42
2024-01-24T00:25:32.876Z,3.35
2024-01-24T00:28:01.297Z,3.20
2024-01-24T00:30:31.801Z,3.92
2024-01-24T00:33:02.200Z,2.72
2024-01-24T00:35:32.885Z,1.90
2024-01-24T00:38:01.069Z,3.55
2024-01-24T00:40:30.595Z,1.95
2024-01-24T00:42:58.843Z,1.90
2024-01-24T00:45:27.127Z,1.90
2024-01-24T00:47:55.478Z,2.22
2024-01-24T00:50:25.122Z,2.47
2024-01-24T00:52:56.549Z,1.30
2024-01-24T00:55:24.780Z,1.30
2024-01-24T00:57:53.555Z,1.85
2024-01-24T01:00:21.967Z,2.97
2024-01-24T01:02:50.822Z,1.80
2024-01-24T01:05:19.375Z,1.30
2024-01-24T01:07:49.332Z,2.30
2024-01-24T01:10:18.165Z,1.25
2024-01-24T01:15:14.909Z,1.23
2024-01-24T01:17:43.263Z,1.75
2024-01-24T01:20:12.684Z,2.03
2024-01-24T01:22:42.122Z,1.70
2024-01-24T01:25:12.069Z,1.50
2024-01-24T01:27:40.407Z,0.90
2024-01-24T01:30:09.453Z,1.20
2024-01-24T01:32:40.039Z,0.73
2024-01-24T01:35:09.094Z,1.42
2024-01-24T01:37:37.426Z,0.80
2024-01-24T01:40:06.052Z,1.08
2024-01-24T01:42:35.988Z,1.27
2024-01-24T01:45:04.783Z,0.88
2024-01-24T01:47:33.756Z,0.70
2024-01-24T01:50:02.130Z,1.05
2024-01-24T01:52:31.905Z,1.67
2024-01-24T01:55:00.330Z,0.80
2024-01-24T01:57:29.023Z,0.90
2024-01-24T01:59:59.492Z,0.82
2024-01-24T02:02:27.717Z,0.55
2024-01-24T02:04:56.086Z,1.27
2024-01-24T02:07:24.412Z,1.60
2024-01-24T02:09:53.033Z,1.00
2024-01-24T02:12:21.314Z,1.90
2024-01-24T02:14:49.808Z,0.98
2024-01-24T02:17:19.425Z,0.80
2024-01-24T02:19:47.854Z,3.83
2024-01-24T02:22:16.334Z,2.38
2024-01-24T02:24:45.942Z,2.60
2024-01-24T02:27:14.741Z,3.13
2024-01-24T02:29:43.043Z,3.53
2024-01-24T02:32:11.341Z,1.85
2024-01-24T02:34:39.790Z,3.60
2024-01-24T02:37:08.204Z,1.58
2024-01-24T02:39:36.509Z,2.53
2024-01-24T02:42:06.459Z,5.95
2024-01-24T02:44:34.973Z,1.77
2024-01-24T02:47:03.278Z,3.83
2024-01-24T02:49:34.594Z,3.95
2024-01-24T02:52:03.170Z,2.75
2024-01-24T02:54:33.061Z,4.10
2024-01-24T02:57:01.318Z,5.95
2024-01-24T02:59:33.336Z,5.93
2024-01-24T03:02:01.623Z,3.00
2024-01-24T03:04:30.550Z,3.47
2024-01-24T03:06:59.062Z,4.10
2024-01-24T03:09:27.445Z,3.55
2024-01-24T03:11:55.799Z,7.07
2024-01-24T03:14:25.864Z,4.65
2024-01-24T03:16:55.515Z,6.18
2024-01-24T03:19:24.049Z,4.30
2024-01-24T03:21:55.368Z,5.85
2024-01-24T03:24:23.648Z,3.67
2024-01-24T03:26:51.915Z,5.57
2024-01-24T03:29:20.878Z,8.32
2024-01-24T03:31:49.704Z,4.82
2024-01-24T03:34:19.560Z,5.00
2024-01-24T03:36:47.976Z,7.18
2024-01-24T03:39:17.666Z,7.75
2024-01-24T03:41:46.053Z,9.98
2024-01-24T03:44:14.404Z,5.20
2024-01-24T03:46:42.786Z,7.07
2024-01-24T03:49:11.206Z,7.80
2024-01-24T03:51:40.965Z,11.10
2024-01-24T03:54:09.292Z,8.88
2024-01-24T03:56:37.512Z,9.75
2024-01-24T03:59:05.782Z,8.43
2024-01-24T04:01:34.052Z,9.25
2024-01-24T04:04:02.353Z,10.70
2024-01-24T04:06:32.848Z,9.57
2024-01-24T04:09:02.463Z,11.50
2024-01-24T04:11:33.140Z,8.88
2024-01-24T04:14:03.536Z,11.30
2024-01-24T04:16:36.629Z,17.90
2024-01-24T04:19:05.102Z,15.18
2024-01-24T04:21:33.660Z,12.10
2024-01-24T04:24:03.296Z,11.50
2024-01-24T04:26:32.430Z,14.32
2024-01-24T04:29:00.780Z,15.38
2024-01-24T04:31:32.052Z,20.73
2024-01-24T04:34:00.428Z,15.65
2024-01-24T04:36:28.724Z,20.50
2024-01-24T04:38:57.033Z,18.00
2024-01-24T04:41:26.573Z,20.48
2024-01-24T04:43:54.818Z,19.50
2024-01-24T04:46:23.081Z,18.33
2024-01-24T04:48:51.826Z,17.98
2024-01-24T04:51:20.114Z,21.05
2024-01-24T04:53:48.488Z,22.20
2024-01-24T04:56:17.968Z,26.27
2024-01-24T04:58:47.964Z,16.73
2024-01-24T05:01:16.683Z,19.48
2024-01-24T05:03:46.141Z,17.05
2024-01-24T05:06:14.971Z,25.38
2024-01-24T05:08:43.400Z,28.85
2024-01-24T05:11:11.953Z,24.17
2024-01-24T05:13:40.998Z,24.92
2024-01-24T05:16:10.672Z,19.80
2024-01-24T05:18:39.270Z,24.90
2024-01-24T05:21:07.589Z,27.65
2024-01-24T05:23:35.836Z,25.38
2024-01-24T05:26:04.122Z,23.77
2024-01-24T05:28:35.150Z,24.42
2024-01-24T05:31:04.055Z,31.35
2024-01-24T05:33:35.158Z,25.00
2024-01-24T05:36:03.933Z,24.30
2024-01-24T05:38:36.316Z,25.30
2024-01-24T05:41:04.628Z,25.88
2024-01-24T05:43:33.931Z,26.58
2024-01-24T05:46:02.208Z,28.23
2024-01-24T05:48:31.893Z,32.40
2024-01-24T05:51:01.606Z,29.75
2024-01-24T05:53:30.527Z,27.70
2024-01-24T05:55:58.776Z,30.70
2024-01-24T05:58:27.039Z,34.40
2024-01-24T06:00:55.802Z,28.70
2024-01-24T06:03:24.092Z,35.53
2024-01-24T06:05:56.233Z,34.13
2024-01-24T06:08:26.185Z,31.00
2024-01-24T06:10:54.579Z,27.08
2024-01-24T06:13:22.885Z,28.53
2024-01-24T06:15:51.210Z,28.17
2024-01-24T06:18:19.599Z,31.03
2024-01-24T06:20:48.292Z,29.95
2024-01-24T06:23:16.691Z,28.17
2024-01-24T06:25:46.291Z,38.28
2024-01-24T06:28:15.304Z,31.40
2024-01-24T06:30:43.635Z,39.10
2024-01-24T06:33:11.909Z,35.67
2024-01-24T06:35:40.226Z,31.27
2024-01-24T06:38:08.494Z,30.85
2024-01-24T06:40:36.769Z,30.60
2024-01-24T06:43:06.690Z,28.20
2024-01-24T06:45:35.161Z,35.30
2024-01-24T06:48:03.539Z,31.70
2024-01-24T06:50:32.557Z,29.93
2024-01-24T06:53:00.843Z,35.97
2024-01-24T06:55:30.493Z,31.17
2024-01-24T06:57:58.848Z,31.73
2024-01-24T07:00:31.823Z,35.27
2024-01-24T07:03:00.658Z,34.80
2024-01-24T07:05:30.677Z,38.00
2024-01-24T07:07:59.088Z,37.40
2024-01-24T07:10:27.371Z,32.10
2024-01-24T07:12:56.967Z,30.77
2024-01-24T07:15:25.314Z,31.93
2024-01-24T07:17:56.965Z,34.37
2024-01-24T07:20:25.321Z,31.87
2024-01-24T07:22:53.586Z,34.57
2024-01-24T07:25:22.299Z,26.37
2024-01-24T07:27:54.670Z,35.27
2024-01-24T07:30:23.485Z,27.27
2024-01-24T07:32:52.694Z,28.57
2024-01-24T07:35:22.311Z,29.23
2024-01-24T07:37:50.876Z,32.13
2024-01-24T07:40:19.469Z,33.17
2024-01-24T07:42:47.600Z,38.80
2024-01-24T07:45:16.668Z,34.10
2024-01-24T07:47:45.831Z,32.10
2024-01-24T07:50:14.386Z,37.20
2024-01-24T07:52:44.569Z,35.73
2024-01-24T07:55:13.536Z,27.90
2024-01-24T07:57:42.544Z,37.20
2024-01-24T08:00:17.400Z,36.07
2024-01-24T08:02:46.074Z,31.17
2024-01-24T08:05:17.724Z,29.73
2024-01-24T08:07:47.268Z,38.33
2024-01-24T08:10:16.777Z,34.03
2024-01-24T08:12:45.735Z,31.70
2024-01-24T08:15:13.806Z,26.73
2024-01-24T08:17:41.945Z,31.60
2024-01-24T08:20:10.999Z,33.67
2024-01-24T08:22:38.953Z,28.57
2024-01-24T08:25:09.752Z,29.23
2024-01-24T08:27:37.910Z,35.03
2024-01-24T08:30:07.915Z,34.60
2024-01-24T08:32:41.476Z,29.00
2024-01-24T08:35:10.441Z,36.53
2024-01-24T08:37:38.900Z,38.50
2024-01-24T08:40:11.306Z,41.80
2024-01-24T08:42:41.647Z,31.90
2024-01-24T08:45:10.539Z,28.13
2024-01-24T08:47:38.796Z,28.77
2024-01-24T08:50:08.033Z,32.43
2024-01-24T08:52:36.423Z,35.20
2024-01-24T08:55:04.891Z,28.57
2024-01-24T08:57:37.795Z,35.73
2024-01-24T09:00:08.565Z,38.53
2024-01-24T09:02:37.452Z,28.37
2024-01-24T09:05:06.459Z,23.13
2024-01-24T09:07:34.632Z,30.87
2024-01-24T09:10:04.982Z,26.97
2024-01-24T09:12:33.487Z,29.50
2024-01-24T09:15:04.596Z,27.25
2024-01-24T09:17:35.001Z,29.20
2024-01-24T09:20:03.511Z,30.43
2024-01-24T09:22:34.714Z,33.13
2024-01-24T09:25:06.268Z,30.70
2024-01-24T09:27:36.169Z,32.10
2024-01-24T09:30:06.847Z,25.60
2024-01-24T09:32:34.926Z,28.40
2024-01-24T09:35:03.489Z,27.23
2024-01-24T09:37:32.982Z,27.87
2024-01-24T09:40:01.052Z,23.60
2024-01-24T09:42:31.711Z,28.40
2024-01-24T09:45:00.492Z,33.97
2024-01-24T09:47:30.634Z,33.07
2024-01-24T09:50:00.350Z,29.88
2024-01-24T09:52:30.634Z,27.77
2024-01-24T09:55:00.823Z,25.67
2024-01-24T09:57:31.763Z,26.17
2024-01-24T10:00:00.099Z,30.77
2024-01-24T10:02:31.808Z,31.63
2024-01-24T10:05:01.298Z,30.50
2024-01-24T10:07:32.233Z,26.17
2024-01-24T10:10:10.777Z,36.17
2024-01-24T10:12:39.134Z,31.73
2024-01-24T10:15:08.632Z,24.85
2024-01-24T10:17:37.987Z,28.23
2024-01-24T10:20:07.656Z,31.08
2024-01-24T10:22:35.757Z,30.77
2024-01-24T10:25:03.895Z,31.30
2024-01-24T10:27:35.657Z,30.50
2024-01-24T10:30:04.618Z,29.30
2024-01-24T10:32:35.925Z,34.35
2024-01-24T10:35:07.106Z,28.92
2024-01-24T10:37:36.736Z,27.35
2024-01-24T10:40:07.721Z,39.63
2024-01-24T10:42:38.257Z,19.42
2024-01-24T10:45:07.518Z,25.38
2024-01-24T10:47:36.165Z,30.15
2024-01-24T10:50:09.138Z,31.27
2024-01-24T10:52:39.667Z,34.55
2024-01-24T10:55:12.262Z,28.40
2024-01-24T10:57:42.440Z,29.63
2024-01-24T11:00:12.238Z,31.98
2024-01-24T11:02:43.338Z,28.30
2024-01-24T11:05:19.639Z,38.38
2024-01-24T11:07:57.329Z,32.03
2024-01-24T11:10:33.275Z,31.90
2024-01-24T11:13:02.847Z,33.00
2024-01-24T11:15:33.505Z,23.50
2024-01-24T11:18:20.812Z,32.28
2024-01-24T11:20:52.845Z,30.77
2024-01-24T11:23:42.349Z,28.40
2024-01-24T11:26:14.703Z,28.63
2024-01-24T11:28:42.822Z,39.97
2024-01-24T11:31:12.105Z,24.55
2024-01-24T11:34:09.577Z,29.30
2024-01-24T11:36:47.159Z,28.40
2024-01-24T11:39:34.715Z,34.50
2024-01-24T11:42:38.493Z,34.30
2024-01-24T11:45:18.526Z,26.55
2024-01-24T11:47:47.098Z,23.27
2024-01-24T11:50:18.587Z,27.85
2024-01-24T11:52:51.425Z,26.30
2024-01-24T11:55:20.928Z,29.77
2024-01-24T11:57:49.082Z,26.35
2024-01-24T12:00:18.534Z,27.15
2024-01-24T12:02:49.765Z,25.77
2024-01-24T12:05:19.334Z,22.13
2024-01-24T12:07:48.717Z,26.05
2024-01-24T12:10:18.295Z,23.17
2024-01-24T12:12:46.550Z,22.55
2024-01-24T12:15:14.705Z,24.45
2024-01-24T12:17:42.844Z,21.40
2024-01-24T12:20:25.950Z,19.88
2024-01-24T12:22:55.660Z,25.15
2024-01-24T12:25:24.085Z,22.98
2024-01-24T12:27:52.836Z,23.42
2024-01-24T12:30:22.134Z,24.00
2024-01-24T12:32:50.918Z,22.75
2024-01-24T12:35:21.094Z,22.85
2024-01-24T12:37:53.060Z,22.15
2024-01-24T12:40:23.541Z,22.70
2024-01-24T12:42:54.578Z,23.42
2024-01-24T12:45:25.819Z,19.60
2024-01-24T12:47:55.189Z,19.92
2024-01-24T12:50:23.974Z,24.15
2024-01-24T12:52:52.480Z,23.75
2024-01-24T12:55:22.307Z,21.52
2024-01-24T12:57:51.289Z,22.23
2024-01-24T13:00:19.598Z,28.30
2024-01-24T13:02:47.769Z,27.27
2024-01-24T13:05:16.023Z,19.52
2024-01-24T13:07:44.240Z,23.50
2024-01-24T13:10:13.550Z,17.70
2024-01-24T13:12:44.955Z,21.95
2024-01-24T13:15:13.272Z,25.92
2024-01-24T13:17:41.229Z,19.52
2024-01-24T13:20:10.574Z,22.67
2024-01-24T13:22:38.673Z,23.75
2024-01-24T13:25:07.391Z,17.48
2024-01-24T13:27:35.320Z,27.33
2024-01-24T13:30:05.216Z,18.15
2024-01-24T13:32:34.444Z,23.55
2024-01-24T13:35:02.410Z,17.15
2024-01-24T13:37:33.093Z,22.05
2024-01-24T13:40:01.894Z,21.60
2024-01-24T13:42:30.568Z,26.52
2024-01-24T13:44:58.597Z,30.37
2024-01-24T13:47:28.916Z,21.17
2024-01-24T13:49:57.833Z,18.35
2024-01-24T13:52:25.989Z,25.20
2024-01-24T13:54:54.234Z,19.73
2024-01-24T13:57:23.464Z,24.73
2024-01-24T13:59:54.644Z,17.67
2024-01-24T14:02:22.708Z,20.77
2024-01-24T14:04:54.599Z,23.83
2024-01-24T14:07:22.826Z,24.15
2024-01-24T14:09:53.329Z,21.02
2024-01-24T14:12:21.361Z,21.25
2024-01-24T14:14:50.750Z,19.38
2024-01-24T14:17:19.192Z,19.45
2024-01-24T14:19:47.306Z,25.88
2024-01-24T14:22:17.566Z,23.27
2024-01-24T14:24:45.892Z,23.35
2024-01-24T14:27:15.745Z,24.25
2024-01-24T14:29:46.950Z,17.10
2024-01-24T14:32:15.791Z,25.87
2024-01-24T14:34:43.754Z,24.52
2024-01-24T14:37:11.869Z,17.07
2024-01-24T14:39:41.700Z,22.90
2024-01-24T14:42:10.432Z,18.20
2024-01-24T14:44:38.331Z,17.40
2024-01-24T14:47:06.655Z,21.20
2024-01-24T14:49:34.853Z,14.43
2024-01-24T14:52:03.835Z,18.37
2024-01-24T14:54:33.717Z,20.47
2024-01-24T14:57:02.327Z,21.40
2024-01-24T14:59:32.571Z,22.77
2024-01-24T15:02:00.732Z,24.33
2024-01-24T15:04:28.829Z,19.80
2024-01-24T15:06:56.869Z,21.25
2024-01-24T15:09:24.872Z,27.40
2024-01-24T15:11:53.066Z,18.17
2024-01-24T15:14:22.410Z,23.13
2024-01-24T15:16:51.097Z,23.88
2024-01-24T15:19:19.094Z,21.97
2024-01-24T15:21:47.475Z,19.98
2024-01-24T15:24:16.069Z,19.27
2024-01-24T15:26:44.233Z,29.17
2024-01-24T15:29:12.590Z,23.92
2024-01-24T15:31:41.924Z,20.83
2024-01-24T15:34:11.769Z,21.70
2024-01-24T15:36:40.732Z,20.53
2024-01-24T15:39:12.915Z,23.63
2024-01-24T15:41:42.156Z,26.27
2024-01-24T15:44:10.344Z,22.27
2024-01-24T15:46:38.337Z,22.10
2024-01-24T15:49:07.754Z,23.40
2024-01-24T15:51:36.033Z,20.50
2024-01-24T15:54:04.183Z,24.10
2024-01-24T15:56:33.594Z,22.60
2024-01-24T15:59:01.676Z,21.83
2024-01-24T16:01:30.860Z,21.13
2024-01-24T16:03:59.460Z,19.93
2024-01-24T16:06:29.060Z,21.27
2024-01-24T16:08:57.980Z,27.57
2024-01-24T16:11:26.049Z,31.47
2024-01-24T16:13:54.653Z,28.20
2024-01-24T16:16:22.701Z,29.17
2024-01-24T16:18:53.005Z,20.60
2024-01-24T16:21:21.755Z,25.23
2024-01-24T16:23:52.943Z,23.67
2024-01-24T16:26:20.801Z,22.73
2024-01-24T16:28:48.835Z,27.50
2024-01-24T16:31:18.234Z,20.20
2024-01-24T16:33:46.750Z,23.63
2024-01-24T16:36:14.900Z,23.57
2024-01-24T16:38:43.050Z,23.33
2024-01-24T16:41:12.433Z,25.57
2024-01-24T16:43:40.453Z,25.27
2024-01-24T16:46:08.455Z,22.17
2024-01-24T16:48:36.951Z,24.43
2024-01-24T16:51:05.369Z,24.50
2024-01-24T16:53:37.338Z,23.60
2024-01-24T16:56:06.253Z,25.07
2024-01-24T16:58:35.570Z,19.77
2024-01-24T17:01:04.586Z,18.67
2024-01-24T17:03:33.473Z,24.37
2024-01-24T17:06:02.588Z,23.97
2024-01-24T17:08:31.739Z,22.13
2024-01-24T17:11:00.803Z,25.17
2024-01-24T17:13:28.748Z,21.63
2024-01-24T17:15:58.004Z,29.60
2024-01-24T17:18:27.937Z,31.70
2024-01-24T17:20:55.960Z,28.60
2024-01-24T17:23:23.895Z,24.67
2024-01-24T17:25:52.376Z,22.53
2024-01-24T17:28:20.506Z,18.47
2024-01-24T17:30:48.902Z,25.50
2024-01-24T17:33:18.887Z,25.50
2024-01-24T17:35:47.352Z,23.37
2024-01-24T17:38:16.317Z,22.00
2024-01-24T17:40:44.662Z,22.23
2024-01-24T17:43:12.835Z,20.33
2024-01-24T17:45:40.997Z,21.17
2024-01-24T17:48:09.790Z,24.97
2024-01-24T17:50:39.153Z,22.93
2024-01-24T17:53:07.125Z,21.30
2024-01-24T17:55:35.204Z,20.93
2024-01-24T17:58:03.437Z,22.93
2024-01-24T18:00:32.980Z,23.40
2024-01-24T18:03:01.942Z,25.27
2024-01-24T18:05:30.585Z,24.53
2024-01-24T18:08:02.688Z,25.43
2024-01-24T18:10:31.786Z,29.30
2024-01-24T18:12:59.746Z,21.73
2024-01-24T18:15:27.821Z,25.33
2024-01-24T18:17:56.525Z,25.53
2024-01-24T18:20:24.855Z,28.37
2024-01-24T18:22:52.751Z,26.43
2024-01-24T18:25:22.230Z,28.80
2024-01-24T18:27:50.694Z,23.90
2024-01-24T18:30:18.978Z,23.63
2024-01-24T18:32:47.744Z,30.83
2024-01-24T18:35:16.638Z,24.37
2024-01-24T18:37:44.588Z,20.17
2024-01-24T18:40:13.925Z,28.27
2024-01-24T18:42:43.531Z,24.03
2024-01-24T18:45:13.664Z,21.83
2024-01-24T18:47:41.892Z,20.67
2024-01-24T18:50:11.157Z,30.00
2024-01-24T18:52:39.360Z,28.27
2024-01-24T18:55:11.514Z,23.13
2024-01-24T18:57:39.446Z,25.20
2024-01-24T19:00:10.720Z,25.23
2024-01-24T19:02:38.933Z,25.50
2024-01-24T19:05:10.067Z,27.30
2024-01-24T19:07:39.629Z,32.33
2024-01-24T19:10:08.369Z,24.07
2024-01-24T19:12:36.389Z,24.67
2024-01-24T19:15:04.826Z,22.03
2024-01-24T19:17:34.753Z,25.17
2024-01-24T19:20:03.501Z,25.63
2024-01-24T19:22:34.403Z,21.27
2024-01-24T19:25:05.657Z,24.37
2024-01-24T19:27:33.781Z,29.13
2024-01-24T19:30:01.903Z,23.70
2024-01-24T19:32:30.735Z,26.77
2024-01-24T19:35:02.045Z,26.30
2024-01-24T19:37:30.697Z,32.23
2024-01-24T19:39:58.687Z,27.07
2024-01-24T19:42:28.143Z,18.87
2024-01-24T19:44:56.256Z,26.97
2024-01-24T19:47:28.888Z,26.23
2024-01-24T19:49:59.446Z,23.20
2024-01-24T19:52:27.425Z,24.07
2024-01-24T19:54:55.473Z,25.10
2024-01-24T19:57:23.528Z,19.93
2024-01-24T19:59:51.893Z,16.77
2024-01-24T20:02:19.786Z,24.27
2024-01-24T20:04:47.685Z,24.07
2024-01-24T20:07:17.592Z,20.77
2024-01-24T20:09:45.697Z,23.90
2024-01-24T20:12:13.774Z,28.10
2024-01-24T20:14:41.794Z,18.87
2024-01-24T20:17:09.782Z,18.83
2024-01-24T20:19:37.859Z,18.20
2024-01-24T20:22:06.307Z,19.10
2024-01-24T20:24:35.741Z,24.47
2024-01-24T20:27:03.864Z,21.97
2024-01-24T20:29:33.654Z,18.63
2024-01-24T20:32:04.143Z,25.03
2024-01-24T20:34:33.755Z,19.73
2024-01-24T20:37:03.405Z,24.97
2024-01-24T20:39:35.272Z,20.30
2024-01-24T20:42:10.800Z,19.50
2024-01-24T20:44:42.039Z,22.47
2024-01-24T20:47:10.817Z,20.63
2024-01-24T20:49:38.815Z,18.80
2024-01-24T20:52:07.758Z,23.27
2024-01-24T20:54:36.502Z,25.33
2024-01-24T20:57:06.206Z,27.03
2024-01-24T20:59:34.416Z,23.60
2024-01-24T21:02:02.797Z,24.53
2024-01-24T21:04:31.755Z,30.27
2024-01-24T21:07:00.211Z,23.13
2024-01-24T21:09:28.272Z,22.30
2024-01-24T21:11:57.535Z,22.97
2024-01-24T21:14:26.860Z,19.10
2024-01-24T21:16:54.863Z,23.73
2024-01-24T21:19:25.730Z,31.07
2024-01-24T21:21:54.278Z,22.80
2024-01-24T21:24:23.031Z,27.83
2024-01-24T21:26:51.389Z,21.50
2024-01-24T21:29:19.483Z,25.73
2024-01-24T21:31:48.992Z,28.10
2024-01-24T21:34:18.317Z,22.07
2024-01-24T21:36:48.599Z,21.83
2024-01-24T21:39:18.487Z,20.33
2024-01-24T21:41:52.049Z,29.53
2024-01-24T21:44:20.001Z,18.90
2024-01-24T21:46:51.773Z,24.13
2024-01-24T21:49:19.775Z,20.70
2024-01-24T21:51:47.966Z,20.47
2024-01-24T21:54:17.494Z,25.33
2024-01-24T21:56:46.041Z,25.37
2024-01-24T21:59:14.031Z,23.07
2024-01-24T22:01:42.243Z,22.67
2024-01-24T22:04:11.747Z,20.53
2024-01-24T22:06:39.881Z,16.73
2024-01-24T22:09:08.357Z,22.30
2024-01-24T22:11:36.851Z,18.53
2024-01-24T22:14:06.463Z,16.07
2024-01-24T22:16:34.405Z,25.97
2024-01-24T22:19:02.544Z,22.07
2024-01-24T22:21:33.630Z,18.27
2024-01-24T22:24:01.638Z,19.27
2024-01-24T22:26:30.701Z,23.00
2024-01-24T22:28:58.802Z,21.23
2024-01-24T22:31:26.816Z,20.00
2024-01-24T22:33:54.957Z,21.97
2024-01-24T22:36:23.072Z,20.03
2024-01-24T22:38:52.505Z,17.27
2024-01-24T22:41:20.412Z,12.43
2024-01-24T22:43:48.392Z,18.67
2024-01-24T22:46:16.327Z,15.30
2024-01-24T22:48:44.418Z,19.50
2024-01-24T22:51:13.226Z,23.33
2024-01-24T22:53:41.808Z,19.13
2024-01-24T22:56:11.363Z,26.43
2024-01-24T22:58:39.294Z,15.80
2024-01-24T23:01:07.477Z,17.20
2024-01-24T23:03:35.723Z,19.37
2024-01-24T23:06:03.655Z,18.60
2024-01-24T23:08:34.371Z,17.07
2024-01-24T23:11:02.453Z,15.47
2024-01-24T23:13:34.349Z,18.33
2024-01-24T23:16:02.344Z,17.80
2024-01-24T23:18:31.872Z,21.73
2024-01-24T23:21:00.365Z,15.03
2024-01-24T23:23:28.369Z,21.17
2024-01-24T23:25:56.295Z,17.27
2024-01-24T23:28:24.425Z,21.73
2024-01-24T23:30:53.911Z,26.17
2024-01-24T23:33:22.038Z,21.67
2024-01-24T23:35:53.217Z,25.80
2024-01-24T23:38:21.175Z,17.83
2024-01-24T23:40:52.038Z,23.27
2024-01-24T23:43:20.418Z,22.37
2024-01-24T23:45:49.741Z,20.47
2024-01-24T23:48:19.223Z,20.70
2024-01-24T23:50:47.844Z,19.43
2024-01-24T23:53:15.901Z,21.43
2024-01-24T23:55:43.827Z,15.97
2024-01-24T23:58:11.891Z,20.57
